createdAt,value
2018-09-20T00:00:38.812Z,101949.03
2018-09-20T00:01:39.034Z,101948.63
2018-09-20T00:02:39.888Z,101948.22
2018-09-20T00:03:40.037Z,101948.03
2018-09-20T00:04:40.807Z,101947.84
2018-09-20T00:05:41.281Z,101947.72
2018-09-20T00:06:42.235Z,101947.64
2018-09-20T00:07:43.094Z,101947.86
2018-09-20T00:08:43.508Z,101948.09
2018-09-20T00:09:43.752Z,101947.81
2018-09-20T00:10:44.149Z,101947.95
2018-09-20T00:11:44.164Z,101948.40
2018-09-20T00:12:44.476Z,101948.30
2018-09-20T00:13:44.674Z,101949.20
2018-09-20T00:14:44.891Z,101949.34
2018-09-20T00:15:45.812Z,101949.30
2018-09-20T00:16:46.569Z,101949.09
2018-09-20T00:17:46.759Z,101949.45
2018-09-20T00:18:47.306Z,101949.67
2018-09-20T00:19:47.531Z,101950.35
2018-09-20T00:20:47.761Z,101950.02
2018-09-20T00:21:48.267Z,101950.53
2018-09-20T00:22:49.196Z,101950.98
2018-09-20T00:23:49.708Z,101950.56
2018-09-20T00:24:50.574Z,101950.12
2018-09-20T00:25:50.899Z,101950.05
2018-09-20T00:26:51.148Z,101950.23
2018-09-20T00:27:51.315Z,101949.84
2018-09-20T00:28:51.770Z,101949.95
2018-09-20T00:28:59.828Z,101952.94
2018-09-20T00:30:01.140Z,101952.18
2018-09-20T00:31:01.382Z,101952.22
2018-09-20T00:32:01.657Z,101952.23
2018-09-20T00:33:01.959Z,101952.02
2018-09-20T00:34:02.938Z,101951.98
2018-09-20T00:35:03.930Z,101951.78
2018-09-20T00:36:04.786Z,101951.83
2018-09-20T00:37:05.106Z,101951.63
2018-09-20T00:38:05.352Z,101951.59
2018-09-20T00:39:05.582Z,101951.48
2018-09-20T00:40:06.015Z,101950.59
2018-09-20T00:41:06.823Z,101950.09
2018-09-20T00:42:07.592Z,101949.90
2018-09-20T00:43:07.869Z,101949.36
2018-09-20T00:44:08.841Z,101948.84
2018-09-20T00:45:09.369Z,101948.82
2018-09-20T00:46:10.098Z,101947.94
2018-09-20T00:47:10.973Z,101947.91
2018-09-20T00:48:11.717Z,101947.53
2018-09-20T00:49:11.989Z,101946.72
2018-09-20T00:50:12.872Z,101945.92
2018-09-20T00:51:13.233Z,101945.45
2018-09-20T00:52:13.419Z,101944.91
2018-09-20T00:53:13.428Z,101944.48
2018-09-20T00:54:13.698Z,101943.72
2018-09-20T00:55:14.028Z,101943.81
2018-09-20T00:56:14.366Z,101943.77
2018-09-20T00:57:14.928Z,101944.02
2018-09-20T00:58:15.642Z,101943.17
2018-09-20T00:59:15.960Z,101942.79
2018-09-20T01:00:16.157Z,101942.37
2018-09-20T01:01:16.926Z,101941.69
2018-09-20T01:02:17.840Z,101941.30
2018-09-20T01:03:18.143Z,101940.75
2018-09-20T01:04:18.379Z,101939.95
2018-09-20T01:05:19.182Z,101939.72
2018-09-20T01:06:19.930Z,101939.08
2018-09-20T01:07:20.135Z,101938.36
2018-09-20T01:08:20.355Z,101937.81
2018-09-20T01:09:20.549Z,101937.09
2018-09-20T01:10:20.921Z,101936.54
2018-09-20T01:11:21.341Z,101935.98
2018-09-20T01:12:22.257Z,101935.83
2018-09-20T01:13:22.511Z,101934.94
2018-09-20T01:14:22.773Z,101934.44
2018-09-20T01:14:32.091Z,101929.48
2018-09-20T01:15:31.864Z,101929.05
2018-09-20T01:16:32.118Z,101928.66
2018-09-20T01:17:32.486Z,101928.59
2018-09-20T01:18:32.750Z,101928.33
2018-09-20T01:19:33.020Z,101927.99
2018-09-20T01:20:33.208Z,101927.99
2018-09-20T01:21:33.424Z,101927.99
2018-09-20T01:22:33.646Z,101928.33
2018-09-20T01:23:33.889Z,101928.59
2018-09-20T01:24:34.129Z,101929.23
2018-09-20T01:25:35.037Z,101929.48
2018-09-20T01:26:35.283Z,101929.67
2018-09-20T01:27:36.145Z,101930.65
2018-09-20T01:28:36.560Z,101930.33
2018-09-20T01:29:36.571Z,101930.80
2018-09-20T01:30:37.021Z,101931.08
2018-09-20T01:31:37.323Z,101931.20
2018-09-20T01:32:37.858Z,101931.25
2018-09-20T01:33:38.614Z,101931.14
2018-09-20T01:34:38.891Z,101931.58
2018-09-20T01:35:39.555Z,101931.50
2018-09-20T01:36:40.319Z,101932.06
2018-09-20T01:37:41.110Z,101932.63
2018-09-20T01:38:41.740Z,101933.38
2018-09-20T01:39:42.546Z,101933.59
2018-09-20T01:40:43.518Z,101934.11
2018-09-20T01:41:44.422Z,101934.94
2018-09-20T01:42:44.531Z,101935.25
2018-09-20T01:43:44.940Z,101935.94
2018-09-20T01:44:45.650Z,101935.95
2018-09-20T01:45:45.934Z,101936.95
2018-09-20T01:46:46.688Z,101937.89
2018-09-20T01:47:47.677Z,101938.08
2018-09-20T01:48:48.640Z,101938.95
2018-09-20T01:49:49.498Z,101939.39
2018-09-20T01:50:49.700Z,101940.17
2018-09-20T01:51:50.142Z,101940.95
2018-09-20T01:52:50.472Z,101941.74
2018-09-20T01:53:50.624Z,101942.02
2018-09-20T01:54:51.033Z,101942.49
2018-09-20T01:55:51.344Z,101943.02
2018-09-20T01:56:52.141Z,101943.41
2018-09-20T01:57:53.111Z,101943.33
2018-09-20T01:58:02.076Z,101945.12
2018-09-20T01:59:02.284Z,101944.87
2018-09-20T02:00:02.682Z,101944.87
2018-09-20T02:01:03.059Z,101944.70
2018-09-20T02:02:03.777Z,101944.44
2018-09-20T02:03:04.207Z,101944.39
2018-09-20T02:04:04.483Z,101944.48
2018-09-20T02:05:04.962Z,101943.93
2018-09-20T02:06:05.242Z,101943.30
2018-09-20T02:07:06.001Z,101942.76
2018-09-20T02:08:06.735Z,101942.55
2018-09-20T02:09:07.005Z,101942.16
2018-09-20T02:10:07.544Z,101941.78
2018-09-20T02:11:07.729Z,101941.20
2018-09-20T02:12:08.012Z,101940.86
2018-09-20T02:13:08.353Z,101940.98
2018-09-20T02:14:08.670Z,101940.41
2018-09-20T02:15:08.873Z,101940.19
2018-09-20T02:16:09.837Z,101939.64
2018-09-20T02:17:10.122Z,101939.59
2018-09-20T02:18:10.321Z,101939.27
2018-09-20T02:19:09.805Z,101938.97
2018-09-20T02:20:11.638Z,101938.92
2018-09-20T02:21:12.058Z,101938.68
2018-09-20T02:22:12.832Z,101938.81
2018-09-20T02:23:13.786Z,101939.28
2018-09-20T02:24:14.168Z,101939.33
2018-09-20T02:25:14.411Z,101939.13
2018-09-20T02:26:14.801Z,101939.47
2018-09-20T02:27:15.111Z,101939.68
2018-09-20T02:28:16.041Z,101939.98
2018-09-20T02:29:16.304Z,101940.45
2018-09-20T02:30:16.552Z,101940.93
2018-09-20T02:31:17.081Z,101940.90
2018-09-20T02:32:17.285Z,101941.70
2018-09-20T02:33:17.497Z,101941.76
2018-09-20T02:34:18.249Z,101942.23
2018-09-20T02:35:18.773Z,101942.41
2018-09-20T02:36:19.581Z,101942.25
2018-09-20T02:37:20.444Z,101942.33
2018-09-20T02:38:20.778Z,101942.28
2018-09-20T02:39:21.212Z,101942.55
2018-09-20T02:40:21.575Z,101943.05
2018-09-20T02:41:21.581Z,101942.98
2018-09-20T02:42:21.885Z,101943.19
2018-09-20T02:43:22.125Z,101943.88
2018-09-20T02:43:30.519Z,101951.84
2018-09-20T02:44:31.725Z,101951.25
2018-09-20T02:45:30.701Z,101951.69
2018-09-20T02:46:31.974Z,101951.72
2018-09-20T02:47:32.743Z,101951.98
2018-09-20T02:48:33.100Z,101952.07
2018-09-20T02:49:33.888Z,101952.02
2018-09-20T02:50:34.101Z,101951.59
2018-09-20T02:51:34.388Z,101951.94
2018-09-20T02:52:34.555Z,101952.02
2018-09-20T02:53:35.019Z,101951.34
2018-09-20T02:54:35.695Z,101951.22
2018-09-20T02:55:35.914Z,101951.56
2018-09-20T02:56:36.105Z,101951.70
2018-09-20T02:57:36.329Z,101951.23
2018-09-20T02:58:36.543Z,101951.53
2018-09-20T02:59:36.700Z,101950.89
2018-09-20T03:00:36.971Z,101950.69
2018-09-20T03:01:37.234Z,101950.81
2018-09-20T03:02:37.423Z,101950.69
2018-09-20T03:03:37.629Z,101950.91
2018-09-20T03:04:37.895Z,101950.88
2018-09-20T03:05:38.285Z,101950.84
2018-09-20T03:06:38.475Z,101951.00
2018-09-20T03:07:38.969Z,101951.73
2018-09-20T03:08:38.359Z,101951.86
2018-09-20T03:09:39.684Z,101951.70
2018-09-20T03:10:39.933Z,101952.17
2018-09-20T03:11:40.238Z,101952.81
2018-09-20T03:12:40.367Z,101953.20
2018-09-20T03:13:41.125Z,101953.38
2018-09-20T03:14:41.459Z,101953.08
2018-09-20T03:15:41.625Z,101954.02
2018-09-20T03:16:41.846Z,101953.94
2018-09-20T03:17:42.050Z,101954.41
2018-09-20T03:18:41.784Z,101954.89
2018-09-20T03:19:43.183Z,101955.27
2018-09-20T03:20:43.478Z,101956.12
2018-09-20T03:21:43.765Z,101956.55
2018-09-20T03:22:43.960Z,101957.23
2018-09-20T03:23:44.216Z,101958.25
2018-09-20T03:24:44.378Z,101959.11
2018-09-20T03:25:44.601Z,101959.27
2018-09-20T03:26:45.124Z,101960.13
2018-09-20T03:27:45.304Z,101960.51
2018-09-20T03:27:53.668Z,101974.52
2018-09-20T03:28:55.154Z,101973.75
2018-09-20T03:29:55.331Z,101973.32
2018-09-20T03:30:55.608Z,101973.15
2018-09-20T03:31:54.682Z,101972.73
2018-09-20T03:32:56.059Z,101971.97
2018-09-20T03:33:56.438Z,101971.32
2018-09-20T03:34:56.652Z,101971.11
2018-09-20T03:35:56.871Z,101970.77
2018-09-20T03:36:57.084Z,101970.30
2018-09-20T03:37:57.326Z,101970.31
2018-09-20T03:38:57.786Z,101969.67
2018-09-20T03:39:57.952Z,101969.75
2018-09-20T03:40:58.123Z,101969.84
2018-09-20T03:41:58.559Z,101969.33
2018-09-20T03:42:58.690Z,101969.13
2018-09-20T03:43:58.923Z,101968.91
2018-09-20T03:44:59.178Z,101968.27
2018-09-20T03:45:59.385Z,101967.98
2018-09-20T03:47:00.026Z,101967.94
2018-09-20T03:48:00.273Z,101967.55
2018-09-20T03:49:00.504Z,101967.30
2018-09-20T03:50:00.738Z,101966.92
2018-09-20T03:51:01.122Z,101966.63
2018-09-20T03:52:00.336Z,101966.50
2018-09-20T03:53:01.646Z,101966.03
2018-09-20T03:54:01.849Z,101966.16
2018-09-20T03:55:02.107Z,101965.61
2018-09-20T03:56:02.899Z,101965.31
2018-09-20T03:57:03.111Z,101965.09
2018-09-20T03:58:03.329Z,101964.55
2018-09-20T03:59:03.591Z,101964.46
2018-09-20T04:00:04.116Z,101963.78
2018-09-20T04:01:04.316Z,101963.22
2018-09-20T04:02:04.854Z,101962.97
2018-09-20T04:03:05.192Z,101962.17
2018-09-20T04:04:05.338Z,101961.69
2018-09-20T04:05:05.563Z,101961.11
2018-09-20T04:06:06.009Z,101960.55
2018-09-20T04:07:06.460Z,101960.42
2018-09-20T04:08:06.669Z,101959.91
2018-09-20T04:09:06.972Z,101958.94
2018-09-20T04:10:07.602Z,101958.94
2018-09-20T04:11:07.783Z,101958.22
2018-09-20T04:12:07.932Z,101957.41
2018-09-20T04:12:15.992Z,101952.86
2018-09-20T04:13:16.540Z,101952.27
2018-09-20T04:14:17.886Z,101952.36
2018-09-20T04:15:18.079Z,101952.27
2018-09-20T04:16:18.328Z,101952.01
2018-09-20T04:17:18.526Z,101951.50
2018-09-20T04:18:18.796Z,101951.20
2018-09-20T04:19:17.963Z,101950.87
2018-09-20T04:20:19.231Z,101951.04
2018-09-20T04:21:19.504Z,101950.22
2018-09-20T04:22:19.731Z,101949.20
2018-09-20T04:23:19.979Z,101948.73
2018-09-20T04:24:20.212Z,101948.48
2018-09-20T04:25:20.456Z,101947.77
2018-09-20T04:26:20.728Z,101947.38
2018-09-20T04:27:20.901Z,101946.40
2018-09-20T04:28:21.252Z,101946.02
2018-09-20T04:29:21.539Z,101945.13
2018-09-20T04:30:21.746Z,101944.10
2018-09-20T04:31:21.967Z,101943.20
2018-09-20T04:32:22.175Z,101943.00
2018-09-20T04:33:22.305Z,101941.89
2018-09-20T04:34:22.500Z,101941.26
2018-09-20T04:35:22.684Z,101940.92
2018-09-20T04:36:23.205Z,101940.54
2018-09-20T04:37:23.466Z,101940.72
2018-09-20T04:38:23.692Z,101940.59
2018-09-20T04:39:23.017Z,101940.25
2018-09-20T04:40:24.162Z,101940.45
2018-09-20T04:41:24.462Z,101941.23
2018-09-20T04:42:23.963Z,101941.17
2018-09-20T04:43:25.280Z,101941.61
2018-09-20T04:44:25.534Z,101941.86
2018-09-20T04:45:25.768Z,101941.52
2018-09-20T04:46:25.961Z,101941.95
2018-09-20T04:47:26.176Z,101942.03
2018-09-20T04:48:26.602Z,101942.16
2018-09-20T04:49:26.842Z,101942.55
2018-09-20T04:50:26.970Z,101943.18
2018-09-20T04:51:27.120Z,101943.56
2018-09-20T04:52:27.281Z,101944.07
2018-09-20T04:53:27.708Z,101944.06
2018-09-20T04:54:26.815Z,101944.31
2018-09-20T04:55:28.026Z,101944.48
2018-09-20T04:56:28.288Z,101945.00
2018-09-20T04:57:28.633Z,101945.77
2018-09-20T04:58:28.907Z,101946.48
2018-09-20T04:58:37.340Z,101952.75
2018-09-20T04:59:38.906Z,101952.84
2018-09-20T05:00:39.481Z,101953.09
2018-09-20T05:01:39.697Z,101953.19
2018-09-20T05:02:39.867Z,101953.52
2018-09-20T05:03:40.319Z,101954.12
2018-09-20T05:04:40.717Z,101954.75
2018-09-20T05:05:40.906Z,101955.14
2018-09-20T05:06:41.515Z,101955.56
2018-09-20T05:07:41.672Z,101956.84
2018-09-20T05:08:41.850Z,101957.43
2018-09-20T05:09:42.133Z,101958.70
2018-09-20T05:10:42.403Z,101959.43
2018-09-20T05:11:42.625Z,101960.19
2018-09-20T05:12:42.794Z,101960.74
2018-09-20T05:13:42.945Z,101961.64
2018-09-20T05:14:43.180Z,101962.70
2018-09-20T05:15:43.376Z,101963.89
2018-09-20T05:16:43.655Z,101964.86
2018-09-20T05:17:44.101Z,101965.97
2018-09-20T05:18:44.272Z,101967.25
2018-09-20T05:19:44.286Z,101968.61
2018-09-20T05:20:44.654Z,101969.47
2018-09-20T05:21:44.874Z,101970.58
2018-09-20T05:22:45.140Z,101971.55
2018-09-20T05:23:45.454Z,101972.66
2018-09-20T05:24:45.611Z,101973.59
2018-09-20T05:25:45.861Z,101975.09
2018-09-20T05:26:46.122Z,101976.37
2018-09-20T05:27:46.385Z,101977.84
2018-09-20T05:28:46.587Z,101979.30
2018-09-20T05:29:46.742Z,101980.33
2018-09-20T05:30:46.933Z,101982.15
2018-09-20T05:31:46.142Z,101983.17
2018-09-20T05:32:47.311Z,101984.91
2018-09-20T05:33:47.542Z,101986.70
2018-09-20T05:34:47.787Z,101987.47
2018-09-20T05:35:48.007Z,101989.17
2018-09-20T05:36:48.730Z,101990.37
2018-09-20T05:37:48.928Z,101991.56
2018-09-20T05:38:49.152Z,101992.75
2018-09-20T05:39:49.325Z,101993.86
2018-09-20T05:40:49.507Z,101995.13
2018-09-20T05:41:50.026Z,101995.98
2018-09-20T05:41:58.099Z,102011.66
2018-09-20T05:42:59.257Z,102011.06
2018-09-20T05:43:59.471Z,102011.83
2018-09-20T05:44:59.662Z,102011.66
2018-09-20T05:45:59.875Z,102011.91
2018-09-20T05:47:00.263Z,102012.16
2018-09-20T05:48:00.742Z,102012.53
2018-09-20T05:49:00.977Z,102012.67
2018-09-20T05:50:01.156Z,102012.84
2018-09-20T05:51:01.383Z,102013.52
2018-09-20T05:52:01.662Z,102013.69
2018-09-20T05:53:02.102Z,102014.45
2018-09-20T05:54:02.729Z,102014.45
2018-09-20T05:55:03.024Z,102014.66
2018-09-20T05:56:03.321Z,102015.43
2018-09-20T05:57:03.528Z,102015.44
2018-09-20T05:58:03.749Z,102015.39
2018-09-20T05:59:03.953Z,102015.65
2018-09-20T06:00:04.143Z,102015.66
2018-09-20T06:01:04.431Z,102016.25
2018-09-20T06:02:04.787Z,102016.37
2018-09-20T06:03:04.959Z,102016.37
2018-09-20T06:04:05.256Z,102017.11
2018-09-20T06:05:05.595Z,102017.61
2018-09-20T06:06:06.279Z,102017.86
2018-09-20T06:07:06.628Z,102018.12
2018-09-20T06:08:06.810Z,102018.38
2018-09-20T06:09:07.763Z,102018.88
2018-09-20T06:10:07.951Z,102019.91
2018-09-20T06:11:08.196Z,102019.98
2018-09-20T06:12:08.459Z,102020.33
2018-09-20T06:13:08.721Z,102020.45
2018-09-20T06:14:08.154Z,102020.45
2018-09-20T06:15:10.042Z,102020.58
2018-09-20T06:16:10.324Z,102019.90
2018-09-20T06:17:10.684Z,102019.09
2018-09-20T06:18:10.889Z,102018.41
2018-09-20T06:19:11.128Z,102017.98
2018-09-20T06:20:11.283Z,102017.27
2018-09-20T06:21:11.500Z,102016.88
2018-09-20T06:22:11.678Z,102016.37
2018-09-20T06:23:12.165Z,102016.33
2018-09-20T06:24:12.659Z,102015.64
2018-09-20T06:25:12.871Z,102015.09
2018-09-20T06:26:13.111Z,102014.11
2018-09-20T06:26:21.803Z,102008.19
2018-09-20T06:27:23.348Z,102007.59
2018-09-20T06:28:23.544Z,102007.77
2018-09-20T06:29:24.332Z,102007.77
2018-09-20T06:30:24.495Z,102007.26
2018-09-20T06:31:24.891Z,102006.06
2018-09-20T06:32:25.328Z,102005.55
2018-09-20T06:33:25.720Z,102004.70
2018-09-20T06:34:26.176Z,102004.02
2018-09-20T06:35:26.560Z,102003.47
2018-09-20T06:36:27.239Z,102002.95
2018-09-20T06:37:27.515Z,102002.31
2018-09-20T06:38:27.584Z,102002.02
2018-09-20T06:39:28.155Z,102001.55
2018-09-20T06:40:29.387Z,102000.81
2018-09-20T06:41:27.770Z,102000.27
2018-09-20T06:42:29.338Z,101999.24
2018-09-20T06:43:29.974Z,101997.50
2018-09-20T06:44:30.267Z,101996.86
2018-09-20T06:45:30.453Z,101995.75
2018-09-20T06:46:30.636Z,101995.23
2018-09-20T06:47:31.056Z,101994.59
2018-09-20T06:48:31.454Z,101993.78
2018-09-20T06:49:30.728Z,101993.70
2018-09-20T06:50:32.076Z,101993.27
2018-09-20T06:51:31.328Z,101993.40
2018-09-20T06:52:32.962Z,101993.70
2018-09-20T06:53:33.345Z,101993.39
2018-09-20T06:54:33.755Z,101993.59
2018-09-20T06:55:34.268Z,101993.60
2018-09-20T06:56:34.572Z,101993.47
2018-09-20T06:57:34.217Z,101993.47
2018-09-20T06:58:35.397Z,101993.26
2018-09-20T06:59:35.811Z,101992.87
2018-09-20T07:00:35.943Z,101993.08
2018-09-20T07:01:36.169Z,101993.34
2018-09-20T07:02:36.358Z,101993.53
2018-09-20T07:03:36.820Z,101993.97
2018-09-20T07:04:37.134Z,101994.72
2018-09-20T07:05:37.354Z,101994.80
2018-09-20T07:06:37.658Z,101995.14
2018-09-20T07:07:37.940Z,101995.44
2018-09-20T07:08:38.147Z,101996.02
2018-09-20T07:09:38.645Z,101996.31
2018-09-20T07:10:38.829Z,101996.56
2018-09-20T07:11:39.119Z,101996.34
2018-09-20T07:12:39.449Z,101996.68
2018-09-20T07:13:40.328Z,101996.33
2018-09-20T07:13:48.776Z,101991.53
2018-09-20T07:14:49.077Z,101991.28
2018-09-20T07:15:50.795Z,101991.92
2018-09-20T07:16:51.155Z,101991.74
2018-09-20T07:17:51.379Z,101991.88
2018-09-20T07:18:51.657Z,101992.37
2018-09-20T07:19:51.828Z,101993.06
2018-09-20T07:20:52.098Z,101993.42
2018-09-20T07:21:52.377Z,101993.92
2018-09-20T07:22:52.719Z,101994.27
2018-09-20T07:23:53.101Z,101994.84
2018-09-20T07:24:53.256Z,101995.17
2018-09-20T07:25:53.555Z,101995.52
2018-09-20T07:26:53.989Z,101995.03
2018-09-20T07:27:54.375Z,101995.55
2018-09-20T07:28:54.539Z,101995.06
2018-09-20T07:29:54.903Z,101994.63
2018-09-20T07:30:55.314Z,101994.62
2018-09-20T07:31:55.860Z,101995.11
2018-09-20T07:32:56.119Z,101995.27
2018-09-20T07:33:57.123Z,101995.20
2018-09-20T07:34:57.298Z,101995.38
2018-09-20T07:35:57.636Z,101995.13
2018-09-20T07:36:58.004Z,101995.28
2018-09-20T07:37:58.232Z,101995.45
2018-09-20T07:38:58.569Z,101995.77
2018-09-20T07:39:57.823Z,101995.67
2018-09-20T07:40:59.050Z,101995.78
2018-09-20T07:41:59.304Z,101995.77
2018-09-20T07:42:59.478Z,101996.03
2018-09-20T07:43:59.707Z,101996.48
2018-09-20T07:44:59.911Z,101996.39
2018-09-20T07:46:00.151Z,101996.54
2018-09-20T07:47:00.712Z,101996.44
2018-09-20T07:48:01.219Z,101996.47
2018-09-20T07:49:01.433Z,101996.37
2018-09-20T07:50:01.874Z,101996.73
2018-09-20T07:51:02.096Z,101996.60
2018-09-20T07:52:02.307Z,101996.39
2018-09-20T07:53:02.953Z,101996.44
2018-09-20T07:54:03.319Z,101996.84
2018-09-20T07:55:03.997Z,101996.03
2018-09-20T07:56:04.500Z,101995.87
2018-09-20T07:57:04.677Z,101995.41
2018-09-20T07:58:04.934Z,101995.40
2018-09-20T07:59:05.119Z,101994.91
2018-09-20T07:59:14.117Z,101993.75
2018-09-20T08:00:14.659Z,101993.23
2018-09-20T08:01:14.896Z,101992.22
2018-09-20T08:02:15.063Z,101991.50
2018-09-20T08:03:15.424Z,101990.53
2018-09-20T08:04:15.802Z,101989.59
2018-09-20T08:05:16.117Z,101989.16
2018-09-20T08:06:16.296Z,101988.24
2018-09-20T08:07:16.590Z,101987.38
2018-09-20T08:08:15.795Z,101986.47
2018-09-20T08:09:17.054Z,101986.20
2018-09-20T08:10:17.258Z,101985.53
2018-09-20T08:11:17.495Z,101984.75
2018-09-20T08:12:17.656Z,101984.58
2018-09-20T08:13:17.777Z,101984.23
2018-09-20T08:14:18.081Z,101984.06
2018-09-20T08:15:18.700Z,101983.78
2018-09-20T08:16:19.660Z,101983.07
2018-09-20T08:17:19.845Z,101983.31
2018-09-20T08:18:20.028Z,101982.58
2018-09-20T08:19:20.455Z,101981.99
2018-09-20T08:20:20.616Z,101981.27
2018-09-20T08:21:20.823Z,101980.31
2018-09-20T08:22:21.081Z,101979.59
2018-09-20T08:23:21.164Z,101978.44
2018-09-20T08:24:22.049Z,101977.26
2018-09-20T08:25:22.433Z,101976.23
2018-09-20T08:26:23.081Z,101975.23
2018-09-20T08:27:23.238Z,101974.67
2018-09-20T08:28:23.625Z,101973.38
2018-09-20T08:29:23.958Z,101972.26
2018-09-20T08:30:24.106Z,101971.03
2018-09-20T08:31:24.437Z,101969.84
2018-09-20T08:32:24.614Z,101968.83
2018-09-20T08:33:25.145Z,101967.78
2018-09-20T08:34:25.393Z,101967.38
2018-09-20T08:35:25.629Z,101966.27
2018-09-20T08:36:25.993Z,101965.83
2018-09-20T08:37:26.263Z,101965.61
2018-09-20T08:38:25.560Z,101964.94
2018-09-20T08:39:26.931Z,101964.19
2018-09-20T08:40:27.255Z,101963.93
2018-09-20T08:41:27.800Z,101963.63
2018-09-20T08:42:28.142Z,101963.44
2018-09-20T08:43:28.294Z,101963.31
2018-09-20T08:44:28.813Z,101962.45
2018-09-20T08:44:36.864Z,101963.69
2018-09-20T08:45:38.054Z,101963.27
2018-09-20T08:46:38.266Z,101962.84
2018-09-20T08:47:38.719Z,101962.50
2018-09-20T08:48:38.912Z,101962.20
2018-09-20T08:49:39.771Z,101961.71
2018-09-20T08:50:40.465Z,101961.27
2018-09-20T08:51:40.672Z,101961.00
2018-09-20T08:52:40.881Z,101961.46
2018-09-20T08:53:41.471Z,101961.09
2018-09-20T08:54:41.851Z,101960.38
2018-09-20T08:55:42.160Z,101960.44
2018-09-20T08:56:42.427Z,101960.20
2018-09-20T08:57:41.737Z,101960.34
2018-09-20T08:58:43.427Z,101959.61
2018-09-20T08:59:43.651Z,101958.70
2018-09-20T09:00:43.848Z,101958.10
2018-09-20T09:01:44.275Z,101957.09
2018-09-20T09:02:45.056Z,101956.10
2018-09-20T09:03:45.435Z,101955.36
2018-09-20T09:04:45.902Z,101954.38
2018-09-20T09:05:46.141Z,101953.84
2018-09-20T09:06:46.296Z,101952.34
2018-09-20T09:07:46.658Z,101951.29
2018-09-20T09:08:46.842Z,101950.64
2018-09-20T09:09:47.173Z,101949.34
2018-09-20T09:10:47.445Z,101949.20
2018-09-20T09:11:47.943Z,101948.45
2018-09-20T09:12:47.613Z,101947.30
2018-09-20T09:13:49.149Z,101947.34
2018-09-20T09:14:49.687Z,101946.97
2018-09-20T09:15:50.562Z,101946.43
2018-09-20T09:16:50.740Z,101945.77
2018-09-20T09:17:51.398Z,101945.11
2018-09-20T09:18:51.642Z,101945.29
2018-09-20T09:19:51.827Z,101945.00
2018-09-20T09:20:52.093Z,101945.06
2018-09-20T09:21:52.855Z,101944.44
2018-09-20T09:22:53.456Z,101944.34
2018-09-20T09:23:53.673Z,101944.22
2018-09-20T09:24:54.135Z,101943.94
2018-09-20T09:25:54.388Z,101943.88
2018-09-20T09:26:54.540Z,101943.41
2018-09-20T09:27:55.292Z,101943.42
2018-09-20T09:28:55.466Z,101943.13
2018-09-20T09:29:03.516Z,101931.66
2018-09-20T09:30:04.792Z,101931.83
2018-09-20T09:31:04.995Z,101931.64
2018-09-20T09:32:05.160Z,101931.88
2018-09-20T09:33:05.369Z,101932.80
2018-09-20T09:34:05.734Z,101932.58
2018-09-20T09:35:04.953Z,101933.06
2018-09-20T09:36:06.153Z,101933.09
2018-09-20T09:37:06.350Z,101932.79
2018-09-20T09:38:06.638Z,101932.48
2018-09-20T09:39:06.876Z,101932.90
2018-09-20T09:40:07.462Z,101933.18
2018-09-20T09:41:07.691Z,101932.88
2018-09-20T09:42:08.013Z,101932.89
2018-09-20T09:43:07.122Z,101933.12
2018-09-20T09:44:08.511Z,101933.41
2018-09-20T09:45:09.019Z,101933.67
2018-09-20T09:46:09.216Z,101933.08
2018-09-20T09:47:10.138Z,101932.71
2018-09-20T09:48:10.435Z,101932.27
2018-09-20T09:49:09.824Z,101932.69
2018-09-20T09:50:11.548Z,101932.61
2018-09-20T09:51:12.060Z,101932.49
2018-09-20T09:52:12.373Z,101932.35
2018-09-20T09:53:12.619Z,101931.97
2018-09-20T09:54:12.906Z,101931.53
2018-09-20T09:55:12.092Z,101931.03
2018-09-20T09:56:13.412Z,101930.50
2018-09-20T09:57:13.656Z,101929.66
2018-09-20T09:58:13.788Z,101929.00
2018-09-20T09:59:14.106Z,101928.17
2018-09-20T10:00:14.670Z,101927.30
2018-09-20T10:01:14.937Z,101926.88
2018-09-20T10:02:15.167Z,101926.53
2018-09-20T10:03:15.448Z,101925.74
2018-09-20T10:04:15.649Z,101924.96
2018-09-20T10:05:15.967Z,101924.36
2018-09-20T10:06:16.108Z,101924.25
2018-09-20T10:07:16.537Z,101923.28
2018-09-20T10:08:16.877Z,101922.08
2018-09-20T10:09:17.123Z,101921.30
2018-09-20T10:10:17.278Z,101920.45
2018-09-20T10:11:17.627Z,101919.50
2018-09-20T10:12:17.868Z,101918.55
2018-09-20T10:13:18.058Z,101917.09
2018-09-20T10:14:18.247Z,101915.78
2018-09-20T10:15:18.432Z,101914.07
2018-09-20T10:15:26.548Z,101890.39
2018-09-20T10:16:27.688Z,101889.97
2018-09-20T10:17:28.050Z,101889.70
2018-09-20T10:18:28.513Z,101890.00
2018-09-20T10:19:28.764Z,101889.97
2018-09-20T10:20:29.109Z,101890.13
2018-09-20T10:21:29.412Z,101890.13
2018-09-20T10:22:29.577Z,101890.30
2018-09-20T10:23:29.762Z,101890.41
2018-09-20T10:24:30.027Z,101889.95
2018-09-20T10:25:30.270Z,101889.91
2018-09-20T10:26:30.522Z,101889.55
2018-09-20T10:27:30.736Z,101889.57
2018-09-20T10:28:31.121Z,101889.20
2018-09-20T10:29:31.578Z,101889.10
2018-09-20T10:30:31.858Z,101889.24
2018-09-20T10:31:31.237Z,101888.62
2018-09-20T10:32:31.281Z,101888.11
2018-09-20T10:33:32.449Z,101887.77
2018-09-20T10:34:32.718Z,101887.44
2018-09-20T10:35:32.943Z,101887.02
2018-09-20T10:36:33.179Z,101886.02
2018-09-20T10:37:33.518Z,101885.89
2018-09-20T10:38:33.682Z,101884.95
2018-09-20T10:39:33.975Z,101884.41
2018-09-20T10:40:34.182Z,101883.39
2018-09-20T10:41:34.483Z,101882.77
2018-09-20T10:42:34.666Z,101881.66
2018-09-20T10:43:34.856Z,101880.27
2018-09-20T10:44:35.071Z,101879.30
2018-09-20T10:45:35.266Z,101878.25
2018-09-20T10:46:35.480Z,101878.07
2018-09-20T10:47:35.712Z,101876.88
2018-09-20T10:48:36.076Z,101875.56
2018-09-20T10:49:36.305Z,101874.10
2018-09-20T10:50:36.427Z,101872.62
2018-09-20T10:51:36.704Z,101871.78
2018-09-20T10:52:36.996Z,101870.39
2018-09-20T10:53:37.176Z,101869.53
2018-09-20T10:54:37.422Z,101868.63
2018-09-20T10:55:36.554Z,101867.27
2018-09-20T10:56:37.736Z,101866.69
2018-09-20T10:57:38.513Z,101865.51
2018-09-20T10:58:38.677Z,101864.64
2018-09-20T10:59:38.980Z,101863.58
2018-09-20T11:00:39.171Z,101862.45
2018-09-20T11:01:39.517Z,101861.39
2018-09-20T11:01:47.601Z,101850.73
2018-09-20T11:02:48.835Z,101850.15
2018-09-20T11:03:49.010Z,101850.22
2018-09-20T11:04:49.250Z,101849.88
2018-09-20T11:05:49.761Z,101849.33
2018-09-20T11:06:50.004Z,101848.50
2018-09-20T11:07:50.326Z,101848.20
2018-09-20T11:08:49.477Z,101847.61
2018-09-20T11:09:51.176Z,101847.37
2018-09-20T11:10:51.430Z,101846.48
2018-09-20T11:11:50.659Z,101845.08
2018-09-20T11:12:52.200Z,101844.48
2018-09-20T11:13:52.626Z,101843.34
2018-09-20T11:14:52.871Z,101843.02
2018-09-20T11:15:53.230Z,101841.80